CPX5 weather

CLOSED Port Colborne (General Hospital) Heliport
Port Colborne, Ontario, Canada

Public forecast

Using degrees Celsius for public forecast. Weather courtesy of forecast.io.

Closest aviation weather report (METAR) to Port Colborne (General Hospital) Heliport

Report is more than 6 hours old.

Closest report is Niagara District Airport, 19.2 nm (35.5 km) NNE. Retrieved 2019/10/21 01:00 UTC (8 hours ago):

CYSN 210100Z 11003KT 15SM SKC 09/09 A2994 RMK LAST STFD OBS/NEXT 21 1100UTC SLP142

Closest aviation forecast (TAF) to Port Colborne (General Hospital) Heliport

Forecast is more than 12 hours old.

Closest forecast is Niagara District Airport, 19.2 nm (35.5 km) NNE. Retrieved 2019/10/20 20:00 UTC (13 hours ago):

TAF CYSN 201938Z 2020/2101 02008KT P6SM FEW025 RMK NXT FCST WILL BE ISSUED AT 211245Z